createdAt,value
2022-09-28T00:01:17.079Z,1.73
2022-09-28T00:03:44.390Z,1.67
2022-09-28T00:06:13.442Z,1.70
2022-09-28T00:08:40.779Z,2.20
2022-09-28T00:11:11.132Z,2.27
2022-09-28T00:13:38.021Z,1.60
2022-09-28T00:16:08.070Z,1.90
2022-09-28T00:18:36.076Z,1.80
2022-09-28T00:21:14.279Z,2.07
2022-09-28T00:24:00.206Z,2.40
2022-09-28T00:26:31.689Z,2.47
2022-09-28T00:29:01.140Z,2.23
2022-09-28T00:31:32.561Z,2.23
2022-09-28T00:34:04.835Z,2.37
2022-09-28T00:36:32.768Z,2.50
2022-09-28T00:39:03.516Z,2.70
2022-09-28T00:41:30.253Z,2.50
2022-09-28T00:44:27.916Z,2.30
2022-09-28T00:47:13.360Z,2.57
2022-09-28T00:49:55.458Z,3.03
2022-09-28T00:52:43.172Z,2.60
2022-09-28T00:55:15.154Z,2.70
2022-09-28T00:57:47.454Z,2.90
2022-09-28T01:00:14.691Z,2.47
2022-09-28T01:02:42.154Z,2.60
2022-09-28T01:05:10.433Z,2.13
2022-09-28T01:07:38.078Z,2.33
2022-09-28T01:10:05.884Z,2.10
2022-09-28T01:12:32.686Z,2.33
2022-09-28T01:15:00.580Z,2.27
2022-09-28T01:17:57.992Z,1.80
2022-09-28T01:20:48.991Z,2.17
2022-09-28T01:23:48.592Z,1.73
2022-09-28T01:26:39.888Z,1.90
2022-09-28T01:29:19.018Z,1.80
2022-09-28T01:31:53.409Z,2.03
2022-09-28T01:34:41.267Z,2.07
2022-09-28T01:37:11.323Z,2.13
2022-09-28T01:39:42.649Z,2.20
2022-09-28T01:42:16.903Z,1.60
2022-09-28T01:44:47.653Z,2.70
2022-09-28T01:47:17.837Z,2.37
2022-09-28T01:49:50.529Z,2.40
2022-09-28T01:52:21.529Z,2.33
2022-09-28T01:54:53.506Z,1.90
2022-09-28T01:57:31.817Z,2.10
2022-09-28T02:00:05.543Z,1.87
2022-09-28T02:02:37.994Z,2.37
2022-09-28T02:05:08.993Z,1.50
2022-09-28T02:07:42.977Z,1.63
2022-09-28T02:10:21.378Z,1.80
2022-09-28T02:13:05.821Z,1.73
2022-09-28T02:15:50.588Z,1.83
2022-09-28T02:18:17.439Z,1.60
2022-09-28T02:21:11.786Z,1.47
2022-09-28T02:23:41.416Z,1.20
2022-09-28T02:26:12.063Z,2.00
2022-09-28T02:28:38.728Z,1.90
2022-09-28T02:31:05.535Z,1.40
2022-09-28T02:33:38.442Z,1.93
2022-09-28T02:36:05.601Z,1.70
2022-09-28T02:38:32.989Z,2.43
2022-09-28T02:41:32.181Z,1.73
2022-09-28T02:44:06.523Z,1.60
2022-09-28T02:46:36.165Z,2.27
2022-09-28T02:49:21.341Z,1.77
2022-09-28T02:52:25.872Z,1.40
2022-09-28T02:55:16.349Z,2.03
2022-09-28T02:58:30.323Z,1.67
2022-09-28T03:01:21.285Z,2.07
2022-09-28T03:03:57.816Z,1.90
2022-09-28T03:06:33.900Z,2.20
2022-09-28T03:09:10.607Z,2.00
2022-09-28T03:11:45.528Z,2.00
2022-09-28T03:14:12.961Z,1.60
2022-09-28T03:16:44.477Z,1.73
2022-09-28T03:19:13.108Z,1.87
2022-09-28T03:21:40.084Z,2.40
2022-09-28T03:24:06.987Z,2.00
2022-09-28T03:26:33.693Z,2.10
2022-09-28T03:29:00.409Z,2.10
2022-09-28T03:31:27.750Z,1.80
2022-09-28T03:33:54.608Z,1.70
2022-09-28T03:36:21.374Z,1.83
2022-09-28T03:38:48.172Z,2.03
2022-09-28T03:41:14.837Z,1.80
2022-09-28T03:43:41.464Z,2.20
2022-09-28T03:46:08.248Z,2.20
2022-09-28T03:48:36.112Z,1.70
2022-09-28T03:51:05.401Z,1.83
2022-09-28T03:53:33.280Z,1.90
2022-09-28T03:56:08.913Z,2.20
2022-09-28T03:58:35.568Z,1.80
2022-09-28T04:01:09.939Z,1.73
2022-09-28T04:03:38.863Z,1.80
2022-09-28T04:06:05.793Z,1.40
2022-09-28T04:08:32.455Z,1.50
2022-09-28T04:11:00.883Z,1.57
2022-09-28T04:13:29.229Z,1.60
2022-09-28T04:15:57.794Z,1.47
2022-09-28T04:18:24.985Z,1.40
2022-09-28T04:21:08.112Z,1.30
2022-09-28T04:23:39.493Z,1.50
2022-09-28T04:26:09.142Z,1.30
2022-09-28T04:28:54.672Z,1.20
2022-09-28T04:31:23.561Z,1.30
2022-09-28T04:33:50.227Z,1.20
2022-09-28T04:36:17.829Z,1.20
2022-09-28T04:38:53.496Z,1.70
2022-09-28T04:41:22.348Z,1.40
2022-09-28T04:43:49.854Z,1.53
2022-09-28T04:46:16.568Z,1.60
2022-09-28T04:48:43.322Z,1.67
2022-09-28T04:51:09.991Z,1.40
2022-09-28T04:53:36.654Z,1.20
2022-09-28T04:56:05.978Z,1.20
2022-09-28T04:58:34.577Z,1.27
2022-09-28T05:01:03.693Z,1.30
2022-09-28T05:03:30.423Z,1.40
2022-09-28T05:05:57.169Z,1.20
2022-09-28T05:08:24.345Z,1.80
2022-09-28T05:10:59.432Z,1.50
2022-09-28T05:13:26.894Z,1.13
2022-09-28T05:15:58.876Z,1.47
2022-09-28T05:18:27.662Z,1.50
2022-09-28T05:20:54.378Z,1.40
2022-09-28T05:23:21.086Z,1.50
2022-09-28T05:25:47.772Z,1.50
2022-09-28T05:28:14.447Z,1.40
2022-09-28T05:30:41.118Z,1.90
2022-09-28T05:33:08.946Z,1.40
2022-09-28T05:35:36.532Z,1.60
2022-09-28T05:38:04.711Z,1.43
2022-09-28T05:40:32.153Z,1.43
2022-09-28T05:43:00.997Z,1.73
2022-09-28T05:45:30.866Z,1.40
2022-09-28T05:47:57.551Z,1.70
2022-09-28T05:50:24.570Z,1.50
2022-09-28T05:53:04.709Z,1.30
2022-09-28T05:55:32.244Z,1.30
2022-09-28T05:57:59.927Z,1.93
2022-09-28T06:00:27.718Z,1.40
2022-09-28T06:03:05.468Z,2.80
2022-09-28T06:05:36.453Z,2.23
2022-09-28T06:08:05.266Z,2.57
2022-09-28T06:10:33.704Z,2.83
2022-09-28T06:13:01.074Z,1.80
2022-09-28T06:15:30.547Z,1.90
2022-09-28T06:17:58.572Z,2.10
2022-09-28T06:20:27.322Z,2.10
2022-09-28T06:22:54.560Z,1.90
2022-09-28T06:25:22.643Z,2.00
2022-09-28T06:28:03.864Z,2.43
2022-09-28T06:30:32.692Z,3.40
2022-09-28T06:33:00.673Z,2.20
2022-09-28T06:35:30.269Z,2.00
2022-09-28T06:37:58.003Z,2.10
2022-09-28T06:40:25.141Z,1.83
2022-09-28T06:43:10.049Z,2.00
2022-09-28T06:45:38.235Z,2.13
2022-09-28T06:48:05.707Z,1.90
2022-09-28T06:50:37.364Z,1.80
2022-09-28T06:53:06.500Z,1.67
2022-09-28T06:55:33.631Z,1.53
2022-09-28T06:58:03.365Z,1.43
2022-09-28T07:00:34.026Z,1.57
2022-09-28T07:03:03.416Z,1.77
2022-09-28T07:05:34.262Z,1.73
2022-09-28T07:08:01.947Z,3.40
2022-09-28T07:10:29.975Z,2.87
2022-09-28T07:12:57.915Z,2.10
2022-09-28T07:15:25.332Z,2.10
2022-09-28T07:18:02.602Z,2.00
2022-09-28T07:20:31.738Z,2.40
2022-09-28T07:23:12.732Z,2.20
2022-09-28T07:25:45.566Z,2.30
2022-09-28T07:28:12.375Z,2.50
2022-09-28T07:30:39.624Z,2.27
2022-09-28T07:33:07.834Z,2.33
2022-09-28T07:35:34.695Z,2.30
2022-09-28T07:38:04.118Z,2.50
2022-09-28T07:40:50.617Z,2.47
2022-09-28T07:43:20.677Z,2.33
2022-09-28T07:45:49.195Z,2.60
2022-09-28T07:48:17.140Z,2.93
2022-09-28T07:50:55.109Z,2.13
2022-09-28T07:53:24.878Z,1.90
2022-09-28T07:55:57.016Z,2.70
2022-09-28T07:58:23.699Z,2.90
2022-09-28T08:00:51.231Z,2.57
2022-09-28T08:03:19.585Z,2.90
2022-09-28T08:05:47.427Z,2.33
2022-09-28T08:08:14.845Z,2.83
2022-09-28T08:10:47.135Z,2.40
2022-09-28T08:13:16.251Z,2.73
2022-09-28T08:15:43.012Z,3.00
2022-09-28T08:18:10.099Z,2.20
2022-09-28T08:20:55.224Z,3.53
2022-09-28T08:23:23.284Z,2.70
2022-09-28T08:25:53.911Z,2.97
2022-09-28T08:28:22.712Z,2.60
2022-09-28T08:30:50.203Z,3.10
2022-09-28T08:33:18.554Z,3.03
2022-09-28T08:35:46.782Z,2.60
2022-09-28T08:38:14.281Z,3.10
2022-09-28T08:40:52.816Z,2.93
2022-09-28T08:43:45.711Z,2.37
2022-09-28T08:46:15.613Z,2.77
2022-09-28T08:49:24.271Z,2.77
2022-09-28T08:52:13.800Z,1.90
2022-09-28T08:54:49.124Z,2.60
2022-09-28T08:57:18.650Z,2.93
2022-09-28T08:59:48.244Z,2.77
2022-09-28T09:02:26.047Z,2.47
2022-09-28T09:04:53.699Z,2.80
2022-09-28T09:07:42.316Z,2.60
2022-09-28T09:10:26.236Z,2.77
2022-09-28T09:13:03.415Z,2.37
2022-09-28T09:15:48.733Z,2.73
2022-09-28T09:18:25.776Z,2.33
2022-09-28T09:20:57.130Z,2.67
2022-09-28T09:23:52.996Z,2.40
2022-09-28T09:26:26.383Z,2.37
2022-09-28T09:29:03.921Z,2.63
2022-09-28T09:32:04.005Z,2.03
2022-09-28T09:34:42.477Z,2.07
2022-09-28T09:37:17.013Z,2.40
2022-09-28T09:40:08.695Z,2.90
2022-09-28T09:42:44.031Z,2.67
2022-09-28T09:46:04.583Z,1.87
2022-09-28T09:49:07.343Z,2.47
2022-09-28T09:51:52.425Z,1.87
2022-09-28T09:54:55.689Z,2.90
2022-09-28T09:57:26.277Z,1.83
2022-09-28T09:59:53.541Z,2.73
2022-09-28T10:02:23.339Z,2.43
2022-09-28T10:04:54.972Z,2.63
2022-09-28T10:07:43.919Z,2.40
2022-09-28T10:10:38.790Z,3.17
2022-09-28T10:13:05.535Z,2.30
2022-09-28T10:15:35.291Z,3.40
2022-09-28T10:18:07.024Z,2.83
2022-09-28T10:20:38.305Z,2.60
2022-09-28T10:23:09.724Z,2.60
2022-09-28T10:25:37.973Z,3.23
2022-09-28T10:28:07.521Z,3.27
2022-09-28T10:30:44.487Z,3.00
2022-09-28T10:33:34.144Z,3.00
2022-09-28T10:36:04.899Z,2.73
2022-09-28T10:38:33.090Z,2.90
2022-09-28T10:41:02.013Z,3.07
2022-09-28T10:43:38.666Z,2.77
2022-09-28T10:46:10.034Z,3.10
2022-09-28T10:49:13.368Z,3.00
2022-09-28T10:51:49.660Z,2.50
2022-09-28T10:54:17.763Z,2.20
2022-09-28T10:56:45.396Z,2.63
2022-09-28T10:59:30.277Z,2.77
2022-09-28T11:02:23.234Z,2.20
2022-09-28T11:04:54.385Z,2.70
2022-09-28T11:07:24.755Z,2.10
2022-09-28T11:09:54.511Z,1.90
2022-09-28T11:12:27.287Z,2.73
2022-09-28T11:15:00.923Z,2.43
2022-09-28T11:17:33.115Z,2.17
2022-09-28T11:20:26.772Z,2.40
2022-09-28T11:22:56.968Z,2.10
2022-09-28T11:25:26.603Z,2.10
2022-09-28T11:27:53.202Z,2.20
2022-09-28T11:30:45.987Z,2.30
2022-09-28T11:33:29.678Z,2.00
2022-09-28T11:36:14.510Z,2.30
2022-09-28T11:39:04.427Z,2.40
2022-09-28T11:42:07.153Z,2.37
2022-09-28T11:44:37.303Z,2.17
2022-09-28T11:47:21.912Z,2.67
2022-09-28T11:49:56.155Z,2.70
2022-09-28T11:52:33.394Z,2.00
2022-09-28T11:55:18.506Z,2.10
2022-09-28T11:57:50.516Z,1.90
2022-09-28T12:00:21.287Z,1.60
2022-09-28T12:03:12.207Z,1.83
2022-09-28T12:05:44.872Z,1.80
2022-09-28T12:08:42.846Z,1.93
2022-09-28T12:11:12.439Z,1.67
2022-09-28T12:13:44.706Z,1.77
2022-09-28T12:17:00.471Z,1.90
2022-09-28T12:19:20.471Z,1.83
2022-09-28T12:21:55.146Z,2.13
2022-09-28T12:24:36.832Z,2.47
2022-09-28T12:27:11.483Z,1.70
2022-09-28T12:29:55.542Z,1.70
2022-09-28T12:32:41.511Z,2.47
2022-09-28T12:35:17.283Z,1.93
2022-09-28T12:38:20.919Z,2.00
2022-09-28T12:41:11.730Z,1.93
2022-09-28T12:43:54.708Z,2.37
2022-09-28T12:46:43.093Z,1.73
2022-09-28T12:52:19.262Z,1.53
2022-09-28T12:55:26.591Z,1.70
2022-09-28T12:58:15.181Z,2.10
2022-09-28T13:01:08.953Z,2.03
2022-09-28T13:03:47.571Z,2.00
2022-09-28T13:06:35.644Z,1.80
2022-09-28T13:09:12.999Z,1.63
2022-09-28T13:11:54.753Z,1.80
2022-09-28T13:14:24.513Z,1.93
2022-09-28T13:17:03.269Z,2.03
2022-09-28T13:19:36.248Z,1.80
2022-09-28T13:22:44.141Z,1.70
2022-09-28T13:25:20.702Z,2.00
2022-09-28T13:28:05.221Z,1.50
2022-09-28T13:30:39.006Z,1.30
2022-09-28T13:33:10.368Z,1.43
2022-09-28T13:35:43.389Z,1.50
2022-09-28T13:38:18.805Z,1.50
2022-09-28T13:41:03.857Z,1.50
2022-09-28T13:43:45.698Z,2.00
2022-09-28T13:46:43.856Z,1.80
2022-09-28T13:49:32.688Z,1.83
2022-09-28T13:52:03.892Z,1.67
2022-09-28T13:54:42.994Z,1.70
2022-09-28T13:57:25.716Z,1.50
2022-09-28T14:00:16.537Z,1.67
2022-09-28T14:03:12.224Z,1.50
2022-09-28T14:05:51.986Z,1.30
2022-09-28T14:08:30.920Z,1.40
2022-09-28T14:11:25.337Z,2.27
2022-09-28T14:14:00.714Z,1.40
2022-09-28T14:16:33.106Z,1.50
2022-09-28T14:19:13.187Z,1.53
2022-09-28T14:21:50.241Z,1.40
2022-09-28T14:24:54.753Z,1.50
2022-09-28T14:27:53.970Z,1.43
2022-09-28T14:30:23.988Z,1.90
2022-09-28T14:32:58.430Z,1.70
2022-09-28T14:35:39.070Z,1.50
2022-09-28T14:38:33.439Z,1.57
2022-09-28T14:41:39.984Z,1.77
2022-09-28T14:44:16.355Z,1.60
2022-09-28T14:46:44.742Z,1.70
2022-09-28T14:49:17.576Z,1.40
2022-09-28T14:52:04.727Z,1.87
2022-09-28T14:55:11.460Z,1.70
2022-09-28T14:57:41.627Z,1.63
2022-09-28T15:00:18.114Z,1.63
2022-09-28T15:02:51.888Z,1.70
2022-09-28T15:05:30.609Z,1.50
2022-09-28T15:07:57.930Z,1.37
2022-09-28T15:10:27.779Z,1.67
2022-09-28T15:12:56.788Z,1.53
2022-09-28T15:15:35.534Z,1.50
2022-09-28T15:18:27.613Z,1.60
2022-09-28T15:20:55.651Z,1.30
2022-09-28T15:23:34.914Z,1.40
2022-09-28T15:26:03.478Z,1.30
2022-09-28T15:28:30.499Z,1.80
2022-09-28T15:31:02.262Z,1.30
2022-09-28T15:33:54.173Z,1.53
2022-09-28T15:36:25.425Z,1.40
2022-09-28T15:39:01.477Z,1.30
2022-09-28T15:41:29.180Z,1.70
2022-09-28T15:44:29.468Z,1.43
2022-09-28T15:47:27.157Z,1.30
2022-09-28T15:50:01.033Z,1.60
2022-09-28T15:52:43.444Z,1.40
2022-09-28T15:55:21.640Z,1.67
2022-09-28T15:57:48.915Z,1.43
2022-09-28T16:00:23.407Z,1.40
2022-09-28T16:03:08.779Z,1.77
2022-09-28T16:05:57.202Z,1.40
2022-09-28T16:08:48.799Z,1.73
2022-09-28T16:11:18.546Z,1.20
2022-09-28T16:14:15.934Z,1.50
2022-09-28T16:16:50.593Z,1.20
2022-09-28T16:19:41.815Z,1.50
2022-09-28T16:22:20.275Z,1.70
2022-09-28T16:24:55.926Z,1.70
2022-09-28T16:27:42.733Z,1.30
2022-09-28T16:30:24.824Z,1.83
2022-09-28T16:32:56.572Z,1.40
2022-09-28T16:35:23.489Z,1.40
2022-09-28T16:38:00.492Z,1.67
2022-09-28T16:40:28.525Z,1.80
2022-09-28T16:42:59.383Z,1.60
2022-09-28T16:45:26.110Z,1.70
2022-09-28T16:47:56.615Z,1.57
2022-09-28T16:50:25.962Z,2.33
2022-09-28T16:53:21.626Z,2.20
2022-09-28T16:55:49.898Z,2.13
2022-09-28T16:58:16.701Z,1.70
2022-09-28T17:00:43.501Z,1.83
2022-09-28T17:03:15.246Z,1.77
2022-09-28T17:05:42.507Z,1.50
2022-09-28T17:08:13.085Z,2.03
2022-09-28T17:11:13.126Z,1.90
2022-09-28T17:13:36.064Z,1.63
2022-09-28T17:16:11.773Z,2.00
2022-09-28T17:18:39.794Z,2.10
2022-09-28T17:21:11.416Z,1.83
2022-09-28T17:23:38.241Z,1.60
2022-09-28T17:26:05.887Z,2.13
2022-09-28T17:28:35.353Z,1.83
2022-09-28T17:31:03.490Z,1.60
2022-09-28T17:33:30.337Z,2.20
2022-09-28T17:36:00.578Z,2.07
2022-09-28T17:38:27.928Z,2.30
2022-09-28T17:40:54.769Z,2.40
2022-09-28T17:43:22.196Z,2.93
2022-09-28T17:45:50.674Z,2.93
2022-09-28T17:48:22.939Z,2.10
2022-09-28T17:50:50.673Z,2.30
2022-09-28T17:53:17.515Z,2.93
2022-09-28T17:55:44.308Z,3.13
2022-09-28T17:58:17.959Z,2.50
2022-09-28T18:00:46.535Z,3.27
2022-09-28T18:03:21.281Z,2.93
2022-09-28T18:05:52.201Z,2.97
2022-09-28T18:08:21.226Z,3.23
2022-09-28T18:10:49.659Z,3.07
2022-09-28T18:13:16.405Z,3.20
2022-09-28T18:15:43.470Z,3.97
2022-09-28T18:18:10.410Z,3.27
2022-09-28T18:20:37.703Z,3.53
2022-09-28T18:23:04.761Z,3.93
2022-09-28T18:25:31.742Z,4.33
2022-09-28T18:28:00.181Z,4.63
2022-09-28T18:30:28.050Z,4.40
2022-09-28T18:32:54.883Z,4.60
2022-09-28T18:35:23.233Z,4.97
2022-09-28T18:37:50.434Z,5.07
2022-09-28T18:40:17.977Z,5.20
2022-09-28T18:42:44.769Z,4.97
2022-09-28T18:45:11.836Z,4.97
2022-09-28T18:47:39.589Z,5.33
2022-09-28T18:50:07.067Z,5.20
2022-09-28T18:52:37.479Z,5.17
2022-09-28T18:55:05.462Z,5.00
2022-09-28T18:57:35.344Z,5.40
2022-09-28T19:00:05.299Z,6.33
2022-09-28T19:02:32.307Z,5.80
2022-09-28T19:04:59.269Z,5.97
2022-09-28T19:07:26.393Z,5.57
2022-09-28T19:09:53.308Z,5.40
2022-09-28T19:12:20.433Z,5.40
2022-09-28T19:14:47.120Z,5.60
2022-09-28T19:17:13.889Z,5.60
2022-09-28T19:19:42.693Z,5.67
2022-09-28T19:22:09.684Z,5.30
2022-09-28T19:24:36.415Z,5.23
2022-09-28T19:27:03.230Z,5.73
2022-09-28T19:29:30.020Z,5.10
2022-09-28T19:31:58.008Z,5.90
2022-09-28T19:34:27.062Z,5.67
2022-09-28T19:36:53.852Z,6.10
2022-09-28T19:39:20.630Z,6.20
2022-09-28T19:41:51.410Z,5.77
2022-09-28T19:44:25.455Z,6.03
2022-09-28T19:46:58.018Z,5.53
2022-09-28T19:49:27.550Z,6.87
2022-09-28T19:52:13.871Z,5.47
2022-09-28T19:54:44.628Z,4.97
2022-09-28T19:57:13.222Z,5.20
2022-09-28T19:59:40.124Z,5.00
2022-09-28T20:02:10.154Z,5.97
2022-09-28T20:04:37.064Z,4.90
2022-09-28T20:07:04.395Z,5.67
2022-09-28T20:09:32.657Z,4.80
2022-09-28T20:11:59.427Z,4.73
2022-09-28T20:14:30.711Z,6.07
2022-09-28T20:17:01.017Z,6.40
2022-09-28T20:19:27.760Z,5.97
2022-09-28T20:21:55.165Z,6.00
2022-09-28T20:24:21.995Z,6.70
2022-09-28T20:26:49.607Z,5.87
2022-09-28T20:29:16.500Z,5.63
2022-09-28T20:31:44.071Z,5.70
2022-09-28T20:34:12.405Z,5.83
2022-09-28T20:36:41.372Z,5.40
2022-09-28T20:39:10.057Z,5.63
2022-09-28T20:41:36.964Z,5.90
2022-09-28T20:44:06.391Z,5.00
2022-09-28T20:46:35.236Z,6.27
2022-09-28T20:49:02.346Z,5.53
2022-09-28T20:51:29.125Z,5.70
2022-09-28T20:53:57.859Z,5.13
2022-09-28T20:56:27.291Z,5.97
2022-09-28T20:58:55.206Z,5.70
2022-09-28T21:01:23.937Z,5.30
2022-09-28T21:03:56.475Z,4.93
2022-09-28T21:06:25.676Z,6.50
2022-09-28T21:08:52.641Z,4.90
2022-09-28T21:11:21.950Z,5.30
2022-09-28T21:13:52.534Z,4.70
2022-09-28T21:16:19.449Z,4.83
2022-09-28T21:18:47.135Z,4.60
2022-09-28T21:21:16.369Z,5.97
2022-09-28T21:23:44.918Z,4.80
2022-09-28T21:26:24.559Z,5.20
2022-09-28T21:28:59.415Z,4.50
2022-09-28T21:31:29.513Z,4.53
2022-09-28T21:33:57.571Z,4.10
2022-09-28T21:36:25.357Z,5.33
2022-09-28T21:38:53.432Z,4.47
2022-09-28T21:41:20.085Z,4.20
2022-09-28T21:43:46.747Z,4.13
2022-09-28T21:46:13.637Z,3.93
2022-09-28T21:48:40.932Z,4.57
2022-09-28T21:51:10.177Z,4.30
2022-09-28T21:53:37.982Z,6.10
2022-09-28T21:56:07.641Z,5.77
2022-09-28T21:58:35.720Z,14.20
2022-09-28T22:01:14.604Z,15.80
2022-09-28T22:03:43.904Z,6.00
2022-09-28T22:06:11.323Z,16.33
2022-09-28T22:08:39.072Z,10.30
2022-09-28T22:11:08.681Z,18.87
2022-09-28T22:13:47.359Z,31.83
2022-09-28T22:16:16.022Z,31.40
2022-09-28T22:18:43.597Z,22.47
2022-09-28T22:21:17.408Z,15.60
2022-09-28T22:23:44.378Z,21.87
2022-09-28T22:26:12.594Z,20.80
2022-09-28T22:28:44.615Z,7.53
2022-09-28T22:31:11.327Z,8.57
2022-09-28T22:33:38.049Z,10.00
2022-09-28T22:36:05.294Z,5.90
2022-09-28T22:38:32.586Z,5.83
2022-09-28T22:40:59.499Z,7.73
2022-09-28T22:43:26.889Z,6.60
2022-09-28T22:46:01.896Z,7.97
2022-09-28T22:48:28.959Z,5.67
2022-09-28T22:50:55.614Z,5.53
2022-09-28T22:53:22.416Z,5.27
2022-09-28T22:55:49.065Z,4.90
2022-09-28T22:58:16.185Z,4.50
2022-09-28T23:00:43.233Z,4.60
2022-09-28T23:03:09.993Z,4.50
2022-09-28T23:05:36.773Z,4.90
2022-09-28T23:08:03.775Z,4.50
2022-09-28T23:10:30.682Z,5.00
2022-09-28T23:12:58.298Z,4.50
2022-09-28T23:15:25.703Z,5.53
2022-09-28T23:17:53.003Z,5.10
2022-09-28T23:20:23.597Z,5.20
2022-09-28T23:22:50.569Z,5.77
2022-09-28T23:25:18.385Z,5.13
2022-09-28T23:27:49.863Z,5.50
2022-09-28T23:30:18.552Z,6.23
2022-09-28T23:32:45.691Z,6.13
2022-09-28T23:35:14.204Z,5.10
2022-09-28T23:37:40.849Z,5.77
2022-09-28T23:40:07.859Z,5.67
2022-09-28T23:42:35.449Z,5.83
2022-09-28T23:45:02.244Z,5.43
2022-09-28T23:47:28.862Z,4.90
2022-09-28T23:49:55.530Z,5.27
2022-09-28T23:52:22.257Z,5.73
2022-09-28T23:54:48.885Z,5.20
2022-09-28T23:57:15.723Z,4.90
2022-09-28T23:59:42.349Z,5.63
